Time;durP1;ratioP1;P1;durP2;ratioP2;P2;SDS_P1;SDS_P2;PMS_P1;PMS_P2;Temp;Humidity;BMP_temperature;BMP_pressure;BME280_temperature;BME280_humidity;BME280_pressure;Samples;Min_cycle;Max_cycle;Signal;HPM_P1;HPM_P2
2022/02/25 00:02:42;;;;;;;10.43;4.37;;;;;;;;;;6144976;23;20195;-86
2022/02/25 00:05:47;;;;;;;10.80;4.23;;;;;;;;;;6143986;23;20366;-87
2022/02/25 00:08:54;;;;;;;6.83;3.07;;;;;;;;;;6144925;23;20198;-86
2022/02/25 00:12:01;;;;;;;4.13;1.60;;;;;;;;;;6144602;23;20485;-85
2022/02/25 00:15:09;;;;;;;1.87;0.80;;;;;;;;;;6143702;23;20301;-86
2022/02/25 00:18:17;;;;;;;3.07;0.87;;;;;;;;;;6144394;23;20209;-86
2022/02/25 00:21:23;;;;;;;1.10;0.70;;;;;;;;;;6144505;23;20411;-86
2022/02/25 00:24:29;;;;;;;1.23;0.80;;;;;;;;;;6144321;23;20178;-86
2022/02/25 00:27:38;;;;;;;1.40;0.70;;;;;;;;;;6144519;23;20274;-87
2022/02/25 00:30:44;;;;;;;1.50;0.70;;;;;;;;;;6145741;23;20212;-86
2022/02/25 00:33:50;;;;;;;1.50;0.70;;;;;;;;;;6144620;23;20296;-86
2022/02/25 00:36:55;;;;;;;3.70;1.13;;;;;;;;;;6145792;23;20208;-85
2022/02/25 00:40:02;;;;;;;1.03;0.63;;;;;;;;;;6163587;23;20153;-85
2022/02/25 00:43:09;;;;;;;1.10;0.60;;;;;;;;;;6165371;23;20160;-85
2022/02/25 00:46:15;;;;;;;1.43;0.67;;;;;;;;;;6165037;23;20220;-86
2022/02/25 00:49:20;;;;;;;0.87;0.60;;;;;;;;;;6145634;23;20173;-85
2022/02/25 00:52:27;;;;;;;0.50;0.40;;;;;;;;;;6144926;23;20256;-86
2022/02/25 00:55:33;;;;;;;0.90;0.60;;;;;;;;;;6144141;23;20180;-86
2022/02/25 00:58:40;;;;;;;1.70;0.73;;;;;;;;;;6144515;23;20176;-87
2022/02/25 01:01:48;;;;;;;0.73;0.60;;;;;;;;;;6144403;23;20173;-88
2022/02/25 01:04:58;;;;;;;2.90;0.60;;;;;;;;;;6144121;23;20232;-85
2022/02/25 01:08:05;;;;;;;0.97;0.60;;;;;;;;;;6144228;23;20231;-87
2022/02/25 01:11:11;;;;;;;0.47;0.47;;;;;;;;;;6160987;23;20173;-86
2022/02/25 01:14:18;;;;;;;0.50;0.50;;;;;;;;;;6144279;23;20288;-87
2022/02/25 01:17:23;;;;;;;0.83;0.50;;;;;;;;;;6146624;23;20176;-87
2022/02/25 01:20:31;;;;;;;0.93;0.60;;;;;;;;;;6144002;23;20525;-87
2022/02/25 01:23:36;;;;;;;1.53;0.60;;;;;;;;;;6144213;23;20175;-87
2022/02/25 01:26:42;;;;;;;1.63;0.50;;;;;;;;;;6143222;23;20176;-86
2022/02/25 01:29:49;;;;;;;0.47;0.43;;;;;;;;;;6143948;23;20529;-87
2022/02/25 01:32:55;;;;;;;0.53;0.40;;;;;;;;;;6132269;23;20216;-86
2022/02/25 01:36:01;;;;;;;0.57;0.50;;;;;;;;;;6178454;23;20168;-86
2022/02/25 01:39:07;;;;;;;1.43;0.40;;;;;;;;;;6161904;23;20185;-86
2022/02/25 01:42:12;;;;;;;1.30;0.50;;;;;;;;;;6152250;23;20545;-86
2022/02/25 01:45:19;;;;;;;2.10;0.50;;;;;;;;;;6145730;23;20187;-86
2022/02/25 01:48:25;;;;;;;0.70;0.47;;;;;;;;;;6162130;23;20172;-87
2022/02/25 01:51:30;;;;;;;0.60;0.50;;;;;;;;;;6145097;23;20288;-87
2022/02/25 01:54:36;;;;;;;1.00;0.57;;;;;;;;;;6145279;23;20422;-87
2022/02/25 01:57:41;;;;;;;2.57;0.60;;;;;;;;;;6164090;23;20180;-86
2022/02/25 02:00:48;;;;;;;0.63;0.43;;;;;;;;;;6147321;23;20171;-86
2022/02/25 02:03:58;;;;;;;1.27;0.60;;;;;;;;;;6150581;23;20192;-85
2022/02/25 02:07:04;;;;;;;1.40;0.60;;;;;;;;;;6160338;23;20176;-86
2022/02/25 02:10:10;;;;;;;1.00;0.50;;;;;;;;;;6163058;23;20241;-86
2022/02/25 02:13:17;;;;;;;0.77;0.73;;;;;;;;;;6179597;23;20207;-86
2022/02/25 02:16:24;;;;;;;0.43;0.40;;;;;;;;;;6161951;23;20143;-87
2022/02/25 02:19:30;;;;;;;0.50;0.50;;;;;;;;;;6163835;23;20159;-86
2022/02/25 02:22:37;;;;;;;1.23;0.60;;;;;;;;;;6163582;23;20229;-85
2022/02/25 02:25:43;;;;;;;1.50;0.50;;;;;;;;;;6160037;23;20196;-86
2022/02/25 02:28:52;;;;;;;0.60;0.40;;;;;;;;;;6159025;23;20488;-84
2022/02/25 02:31:57;;;;;;;0.40;0.40;;;;;;;;;;6159100;23;20172;-86
2022/02/25 02:35:03;;;;;;;0.70;0.70;;;;;;;;;;6175476;23;20176;-86
2022/02/25 02:38:10;;;;;;;0.60;0.60;;;;;;;;;;6176107;23;20223;-86
2022/02/25 02:41:16;;;;;;;2.60;0.70;;;;;;;;;;6178824;23;20205;-85
2022/02/25 02:44:21;;;;;;;1.90;0.50;;;;;;;;;;6159606;23;20171;-86
2022/02/25 02:47:27;;;;;;;1.97;0.50;;;;;;;;;;6156224;23;20184;-86
2022/02/25 02:50:32;;;;;;;1.10;0.50;;;;;;;;;;6152960;23;20196;-87
2022/02/25 02:53:39;;;;;;;1.03;0.60;;;;;;;;;;6153705;23;20212;-86
2022/02/25 02:56:45;;;;;;;2.87;0.70;;;;;;;;;;6153211;23;20413;-86
2022/02/25 02:59:50;;;;;;;0.93;0.40;;;;;;;;;;6151620;23;20173;-85
2022/02/25 03:02:56;;;;;;;2.30;0.50;;;;;;;;;;6150636;23;20180;-86
2022/02/25 03:06:01;;;;;;;2.40;0.60;;;;;;;;;;6157742;23;20224;-86
2022/02/25 03:09:09;;;;;;;4.30;0.50;;;;;;;;;;6162029;23;20153;-87
2022/02/25 03:12:16;;;;;;;1.13;0.60;;;;;;;;;;6162693;23;20210;-86
2022/02/25 03:15:23;;;;;;;0.97;0.50;;;;;;;;;;6137857;23;20216;-86
2022/02/25 03:18:28;;;;;;;1.13;0.70;;;;;;;;;;6162801;23;20189;-86
2022/02/25 03:21:34;;;;;;;2.73;0.50;;;;;;;;;;6162403;23;20242;-86
2022/02/25 03:24:42;;;;;;;3.90;0.70;;;;;;;;;;6161727;23;20153;-86
2022/02/25 03:27:48;;;;;;;1.47;0.60;;;;;;;;;;6159891;23;20160;-87
2022/02/25 03:30:53;;;;;;;1.17;0.60;;;;;;;;;;6159142;23;20177;-85
2022/02/25 03:33:59;;;;;;;0.70;0.50;;;;;;;;;;6159576;23;20501;-86
2022/02/25 03:37:05;;;;;;;1.50;0.60;;;;;;;;;;6159334;23;20224;-86
2022/02/25 03:40:13;;;;;;;1.57;0.70;;;;;;;;;;6161132;23;20231;-86
2022/02/25 03:43:18;;;;;;;2.20;0.70;;;;;;;;;;6161275;23;20225;-85
2022/02/25 03:46:24;;;;;;;1.53;0.50;;;;;;;;;;6163631;23;20159;-85
2022/02/25 03:49:29;;;;;;;1.17;0.60;;;;;;;;;;6157693;23;20547;-86
2022/02/25 03:52:35;;;;;;;1.03;0.50;;;;;;;;;;6157646;23;20265;-85
2022/02/25 03:55:42;;;;;;;2.53;0.57;;;;;;;;;;6157921;23;20176;-85
2022/02/25 03:58:48;;;;;;;1.00;0.50;;;;;;;;;;6159040;23;20176;-86
2022/02/25 04:01:53;;;;;;;2.07;0.60;;;;;;;;;;6168720;23;20370;-86
2022/02/25 04:04:58;;;;;;;1.33;0.70;;;;;;;;;;6148627;23;20171;-86
2022/02/25 04:08:04;;;;;;;0.87;0.70;;;;;;;;;;6147455;23;20319;-85
2022/02/25 04:11:11;;;;;;;3.13;0.70;;;;;;;;;;6147352;23;20293;-86
2022/02/25 04:14:19;;;;;;;5.10;0.70;;;;;;;;;;6146364;23;20204;-86
2022/02/25 04:17:24;;;;;;;1.40;0.63;;;;;;;;;;6148653;23;20180;-86
2022/02/25 04:20:29;;;;;;;1.80;0.70;;;;;;;;;;6145578;23;20393;-86
2022/02/25 04:23:35;;;;;;;2.93;0.80;;;;;;;;;;6144746;23;20227;-86
2022/02/25 04:26:44;;;;;;;1.07;0.57;;;;;;;;;;6164244;23;20180;-85
2022/02/25 04:29:49;;;;;;;1.43;0.70;;;;;;;;;;6159993;23;20450;-86
2022/02/25 04:32:55;;;;;;;3.03;0.80;;;;;;;;;;6161089;23;20196;-87
2022/02/25 04:36:00;;;;;;;0.97;0.67;;;;;;;;;;6144483;23;20219;-88
2022/02/25 04:39:07;;;;;;;0.70;0.70;;;;;;;;;;6161625;23;20200;-86
2022/02/25 04:42:14;;;;;;;1.03;0.70;;;;;;;;;;6143751;23;20219;-86
2022/02/25 04:45:19;;;;;;;2.67;0.80;;;;;;;;;;6143178;23;20420;-87
2022/02/25 04:48:24;;;;;;;1.00;0.70;;;;;;;;;;6143738;23;20541;-86
2022/02/25 04:51:30;;;;;;;4.10;0.67;;;;;;;;;;6171468;23;20213;-85
2022/02/25 04:54:35;;;;;;;1.13;0.70;;;;;;;;;;6143927;23;20568;-86
2022/02/25 04:57:42;;;;;;;1.67;0.80;;;;;;;;;;6143715;23;20215;-86
2022/02/25 05:00:47;;;;;;;2.13;0.80;;;;;;;;;;6142206;23;20471;-86
2022/02/25 05:03:52;;;;;;;1.50;0.90;;;;;;;;;;6143330;23;20168;-87
2022/02/25 05:06:58;;;;;;;7.60;1.23;;;;;;;;;;6143307;23;20180;-86
2022/02/25 05:10:03;;;;;;;1.87;0.97;;;;;;;;;;6159739;23;20419;-87
2022/02/25 05:13:10;;;;;;;2.73;1.07;;;;;;;;;;6148625;23;20299;-86
2022/02/25 05:23:02;;;;;;;4.97;1.10;;;;;;;;;;6163904;23;20208;-87
2022/02/25 05:26:07;;;;;;;3.97;1.37;;;;;;;;;;6146864;23;20191;-87
2022/02/25 05:29:15;;;;;;;2.53;1.43;;;;;;;;;;6144017;23;20557;-88
2022/02/25 05:32:21;;;;;;;3.87;1.47;;;;;;;;;;6143740;23;20412;-88
2022/02/25 05:35:27;;;;;;;7.73;1.47;;;;;;;;;;6160592;23;20211;-87
2022/02/25 05:38:32;;;;;;;2.23;1.57;;;;;;;;;;6143435;23;20234;-86
2022/02/25 05:41:41;;;;;;;2.90;1.40;;;;;;;;;;6160317;23;20176;-87
2022/02/25 05:44:48;;;;;;;1.93;1.20;;;;;;;;;;6160103;23;20196;-88
2022/02/25 05:51:18;;;;;;;3.03;1.60;;;;;;;;;;6149078;23;20326;-88
2022/02/25 05:54:24;;;;;;;2.63;1.37;;;;;;;;;;6126582;23;20204;-87
2022/02/25 05:57:29;;;;;;;2.03;1.20;;;;;;;;;;6143118;23;20301;-87
2022/02/25 06:00:36;;;;;;;2.00;1.30;;;;;;;;;;6143313;23;20232;-87
2022/02/25 06:03:41;;;;;;;7.33;1.27;;;;;;;;;;6143870;23;20253;-87
2022/02/25 06:06:46;;;;;;;11.63;1.50;;;;;;;;;;6142289;23;20175;-87
2022/02/25 06:09:51;;;;;;;4.07;1.30;;;;;;;;;;6142908;23;20176;-87
2022/02/25 06:12:56;;;;;;;2.37;1.43;;;;;;;;;;6142711;23;20173;-86
2022/02/25 06:16:04;;;;;;;2.80;1.27;;;;;;;;;;6141665;23;20181;-86
2022/02/25 06:19:09;;;;;;;3.57;1.63;;;;;;;;;;6141497;23;20473;-86
2022/02/25 06:22:16;;;;;;;4.90;1.43;;;;;;;;;;6140412;23;20514;-86
2022/02/25 06:25:22;;;;;;;12.73;1.93;;;;;;;;;;6142050;23;20197;-86
2022/02/25 06:28:27;;;;;;;4.37;1.70;;;;;;;;;;6143398;23;20172;-87
2022/02/25 06:31:34;;;;;;;2.33;1.20;;;;;;;;;;6142575;23;20540;-86
2022/02/25 06:34:39;;;;;;;3.50;1.37;;;;;;;;;;6142647;23;20323;-85
2022/02/25 06:37:44;;;;;;;6.87;1.77;;;;;;;;;;6144391;23;20267;-87
2022/02/25 06:40:49;;;;;;;3.47;1.67;;;;;;;;;;6144406;23;20176;-86
2022/02/25 06:43:56;;;;;;;4.23;1.60;;;;;;;;;;6142773;23;20176;-87
2022/02/25 06:47:06;;;;;;;3.97;1.40;;;;;;;;;;6160205;23;20184;-86
2022/02/25 06:50:16;;;;;;;4.70;1.80;;;;;;;;;;6160750;23;20181;-86
2022/02/25 06:53:21;;;;;;;4.67;2.10;;;;;;;;;;6147436;23;20349;-86
2022/02/25 06:56:27;;;;;;;5.43;1.97;;;;;;;;;;6128762;23;20177;-86
2022/02/25 06:59:32;;;;;;;4.53;1.70;;;;;;;;;;6129647;23;20546;-86
2022/02/25 07:02:39;;;;;;;3.97;1.80;;;;;;;;;;6129773;23;20205;-86
2022/02/25 07:05:45;;;;;;;5.20;1.90;;;;;;;;;;6129560;23;20208;-86
2022/02/25 07:08:50;;;;;;;3.33;2.07;;;;;;;;;;6131989;23;20176;-87
2022/02/25 07:11:55;;;;;;;3.47;2.00;;;;;;;;;;6131357;23;20200;-87
2022/02/25 07:15:03;;;;;;;7.23;2.63;;;;;;;;;;6129364;23;20201;-86
2022/02/25 07:18:10;;;;;;;11.00;2.33;;;;;;;;;;6129726;23;20249;-87
2022/02/25 07:21:16;;;;;;;5.10;1.80;;;;;;;;;;6130194;23;20176;-86
2022/02/25 07:24:21;;;;;;;4.53;2.03;;;;;;;;;;6129451;23;20201;-86
2022/02/25 07:27:26;;;;;;;5.23;1.90;;;;;;;;;;6129438;23;20173;-87
2022/02/25 07:30:31;;;;;;;5.40;2.07;;;;;;;;;;6130003;23;20177;-86
2022/02/25 07:33:38;;;;;;;4.70;2.10;;;;;;;;;;6131033;23;20598;-86
2022/02/25 07:36:43;;;;;;;4.10;1.67;;;;;;;;;;6132006;23;20526;-86
2022/02/25 07:39:49;;;;;;;3.67;2.00;;;;;;;;;;6131801;23;20198;-88
2022/02/25 07:42:54;;;;;;;5.97;1.50;;;;;;;;;;6133368;23;20244;-87
2022/02/25 07:45:59;;;;;;;4.33;1.87;;;;;;;;;;6132096;23;20229;-87
2022/02/25 07:49:06;;;;;;;8.13;1.70;;;;;;;;;;6134520;23;20177;-87
2022/02/25 07:52:12;;;;;;;4.87;1.70;;;;;;;;;;6135302;23;20192;-87
2022/02/25 07:55:17;;;;;;;5.40;1.43;;;;;;;;;;6146591;23;20196;-87
2022/02/25 07:58:24;;;;;;;2.73;1.37;;;;;;;;;;6145139;23;20563;-87
2022/02/25 08:01:30;;;;;;;37.40;8.60;;;;;;;;;;6145919;23;20173;-87
2022/02/25 08:04:37;;;;;;;2.20;1.33;;;;;;;;;;6162561;23;20187;-88
2022/02/25 08:07:44;;;;;;;3.60;1.10;;;;;;;;;;6161817;23;20165;-86
2022/02/25 08:10:51;;;;;;;2.77;1.20;;;;;;;;;;6179998;23;20192;-87
2022/02/25 08:13:56;;;;;;;4.20;1.00;;;;;;;;;;6151141;23;20195;-87
2022/02/25 08:17:02;;;;;;;1.57;1.00;;;;;;;;;;6162337;23;20188;-87
2022/02/25 08:20:13;;;;;;;1.77;0.97;;;;;;;;;;6164822;23;20152;-87
2022/02/25 08:23:18;;;;;;;4.20;1.20;;;;;;;;;;6164597;23;20160;-86
2022/02/25 08:26:24;;;;;;;4.27;1.30;;;;;;;;;;6163940;23;20217;-87
2022/02/25 08:29:29;;;;;;;3.53;1.23;;;;;;;;;;6164532;23;20220;-85
2022/02/25 08:32:35;;;;;;;2.80;1.13;;;;;;;;;;6164183;23;20185;-85
2022/02/25 08:35:42;;;;;;;3.67;1.10;;;;;;;;;;6180400;23;20227;-86
2022/02/25 08:38:48;;;;;;;3.97;1.20;;;;;;;;;;6162886;23;20239;-85
2022/02/25 08:41:54;;;;;;;5.40;1.27;;;;;;;;;;6147956;23;20289;-86
2022/02/25 08:45:00;;;;;;;5.27;1.37;;;;;;;;;;6144867;23;20185;-86
2022/02/25 08:48:06;;;;;;;5.10;1.17;;;;;;;;;;6145760;23;20233;-86
2022/02/25 08:51:14;;;;;;;4.73;1.10;;;;;;;;;;6143688;23;20180;-86
2022/02/25 08:54:22;;;;;;;3.83;1.27;;;;;;;;;;6160611;23;20256;-87
2022/02/25 08:57:28;;;;;;;3.97;1.30;;;;;;;;;;6146272;23;20168;-86
2022/02/25 09:00:33;;;;;;;3.30;0.97;;;;;;;;;;6146795;23;20180;-87
2022/02/25 09:03:40;;;;;;;4.03;1.07;;;;;;;;;;6143937;23;20172;-87
2022/02/25 09:06:47;;;;;;;10.27;1.53;;;;;;;;;;6148541;23;20260;-87
2022/02/25 09:09:52;;;;;;;4.30;1.33;;;;;;;;;;6147572;23;20181;-87
2022/02/25 09:12:57;;;;;;;6.23;1.50;;;;;;;;;;6143602;23;20285;-87
2022/02/25 09:16:04;;;;;;;6.07;1.43;;;;;;;;;;6142922;23;20173;-88
2022/02/25 09:19:09;;;;;;;5.40;1.50;;;;;;;;;;6143714;23;20212;-87
2022/02/25 09:22:17;;;;;;;4.33;1.00;;;;;;;;;;6143686;23;20308;-88
2022/02/25 09:25:23;;;;;;;2.50;0.80;;;;;;;;;;6142755;23;20173;-88
2022/02/25 09:28:28;;;;;;;5.23;1.50;;;;;;;;;;6143073;23;20343;-88
2022/02/25 09:31:34;;;;;;;6.73;1.00;;;;;;;;;;6143284;23;20251;-85
2022/02/25 09:34:39;;;;;;;3.03;0.87;;;;;;;;;;6144414;23;20220;-86
2022/02/25 09:37:46;;;;;;;6.80;1.10;;;;;;;;;;6143589;23;20292;-87
2022/02/25 09:40:52;;;;;;;3.13;1.00;;;;;;;;;;6143082;23;20180;-86
2022/02/25 09:43:57;;;;;;;3.43;0.97;;;;;;;;;;6142612;23;20216;-88
2022/02/25 09:47:03;;;;;;;3.17;0.80;;;;;;;;;;6143022;23;20216;-87
2022/02/25 09:50:11;;;;;;;5.47;1.00;;;;;;;;;;6160647;23;20180;-89
2022/02/25 09:53:18;;;;;;;3.37;1.03;;;;;;;;;;6131587;23;20586;-87
2022/02/25 09:56:25;;;;;;;2.13;0.97;;;;;;;;;;6129632;23;20181;-87
2022/02/25 09:59:30;;;;;;;2.73;0.90;;;;;;;;;;6131217;23;20207;-88
2022/02/25 10:02:39;;;;;;;2.33;0.90;;;;;;;;;;6131617;23;20176;-88
2022/02/25 10:05:47;;;;;;;2.87;1.00;;;;;;;;;;6131295;23;20165;-86
2022/02/25 10:08:55;;;;;;;4.93;1.20;;;;;;;;;;6132028;23;20177;-89
2022/02/25 10:12:07;;;;;;;3.53;0.80;;;;;;;;;;6132687;23;20473;-85
2022/02/25 10:15:12;;;;;;;2.33;0.80;;;;;;;;;;6130509;23;20240;-86
2022/02/25 10:18:18;;;;;;;1.07;0.67;;;;;;;;;;6132260;23;20212;-87
2022/02/25 10:21:24;;;;;;;5.07;1.10;;;;;;;;;;6130175;23;20201;-87
2022/02/25 10:24:44;;;;;;;10.40;1.17;;;;;;;;;;6131952;23;20176;-87
2022/02/25 10:27:51;;;;;;;3.93;1.20;;;;;;;;;;6131134;23;20234;-88
2022/02/25 10:31:12;;;;;;;4.23;1.30;;;;;;;;;;6131534;23;20180;-88
2022/02/25 10:34:18;;;;;;;3.60;0.77;;;;;;;;;;6133153;23;20224;-88
2022/02/25 10:37:23;;;;;;;4.20;1.20;;;;;;;;;;6132239;23;20221;-88
2022/02/25 10:40:32;;;;;;;4.83;1.10;;;;;;;;;;6147563;23;20173;-88
2022/02/25 10:43:45;;;;;;;2.67;1.10;;;;;;;;;;6129712;23;20176;-87
2022/02/25 10:47:11;;;;;;;9.90;1.47;;;;;;;;;;6131716;23;20204;-87
2022/02/25 10:50:16;;;;;;;6.20;1.77;;;;;;;;;;6149340;23;20198;-87
2022/02/25 10:53:27;;;;;;;2.80;0.90;;;;;;;;;;6147598;23;20192;-87
2022/02/25 10:56:45;;;;;;;9.37;1.30;;;;;;;;;;6131041;23;20224;-87
2022/02/25 10:59:51;;;;;;;3.37;0.90;;;;;;;;;;6130966;23;20542;-87
2022/02/25 11:02:59;;;;;;;5.23;1.07;;;;;;;;;;6131530;23;20399;-87
2022/02/25 11:06:09;;;;;;;6.43;1.20;;;;;;;;;;6131506;23;20177;-87
2022/02/25 11:09:14;;;;;;;6.33;1.30;;;;;;;;;;6132072;23;20377;-87
2022/02/25 11:12:22;;;;;;;9.17;1.60;;;;;;;;;;6131100;23;20197;-87
2022/02/25 11:15:31;;;;;;;4.57;1.00;;;;;;;;;;6130154;23;20244;-87
2022/02/25 11:18:37;;;;;;;4.87;1.03;;;;;;;;;;6141416;23;20185;-87
2022/02/25 11:21:43;;;;;;;5.57;1.03;;;;;;;;;;6131267;23;20172;-87
2022/02/25 11:24:50;;;;;;;4.50;1.10;;;;;;;;;;6131212;23;20177;-88
2022/02/25 11:28:11;;;;;;;6.17;1.50;;;;;;;;;;6131818;23;20403;-88
2022/02/25 11:31:23;;;;;;;6.07;0.87;;;;;;;;;;6132300;23;20239;-88
2022/02/25 11:34:29;;;;;;;5.40;1.00;;;;;;;;;;6132569;23;20239;-88
2022/02/25 11:37:44;;;;;;;6.07;1.17;;;;;;;;;;6132610;23;20293;-87
2022/02/25 11:40:55;;;;;;;7.63;1.10;;;;;;;;;;6130889;23;20259;-88
2022/02/25 11:44:01;;;;;;;8.87;1.73;;;;;;;;;;6132685;23;20180;-88
2022/02/25 11:47:08;;;;;;;4.87;1.00;;;;;;;;;;6129865;23;20311;-88
2022/02/25 11:50:28;;;;;;;3.03;1.13;;;;;;;;;;6132031;23;20301;-88
2022/02/25 11:53:34;;;;;;;3.43;0.80;;;;;;;;;;6131445;23;20244;-88
2022/02/25 11:56:39;;;;;;;5.47;1.02;;;;;;;;;;6132335;23;20281;-88
2022/02/25 12:00:03;;;;;;;5.20;0.93;;;;;;;;;;6130666;23;20174;-87
2022/02/25 12:03:36;;;;;;;6.10;1.10;;;;;;;;;;6143401;23;20172;-85
2022/02/25 12:07:06;;;;;;;7.07;1.10;;;;;;;;;;6143767;23;20189;-87
2022/02/25 12:10:22;;;;;;;3.83;1.50;;;;;;;;;;6143976;23;20533;-86
2022/02/25 12:13:28;;;;;;;8.73;1.40;;;;;;;;;;6145740;23;20185;-86
2022/02/25 12:16:35;;;;;;;8.47;1.03;;;;;;;;;;6136175;23;20197;-86
2022/02/25 12:20:00;;;;;;;2.43;1.00;;;;;;;;;;6132290;23;20177;-87
2022/02/25 12:23:15;;;;;;;3.40;1.30;;;;;;;;;;6133947;23;20322;-86
2022/02/25 12:26:30;;;;;;;3.97;1.00;;;;;;;;;;6134355;23;20289;-87
2022/02/25 12:29:37;;;;;;;3.17;1.20;;;;;;;;;;6132297;23;20245;-88
2022/02/25 12:32:46;;;;;;;3.77;1.60;;;;;;;;;;6115453;23;20240;-88
2022/02/25 12:35:52;;;;;;;8.00;1.90;;;;;;;;;;6132096;23;20201;-88
2022/02/25 12:39:01;;;;;;;5.90;1.37;;;;;;;;;;6133164;23;20187;-87
2022/02/25 12:42:09;;;;;;;5.90;1.10;;;;;;;;;;6132140;23;20541;-86
2022/02/25 12:45:14;;;;;;;5.90;1.30;;;;;;;;;;6132667;23;20185;-84
2022/02/25 12:48:20;;;;;;;4.27;0.90;;;;;;;;;;6132421;23;20434;-85
2022/02/25 12:51:26;;;;;;;3.60;1.07;;;;;;;;;;6135029;23;20220;-87
2022/02/25 12:54:34;;;;;;;5.00;1.00;;;;;;;;;;6135391;23;20177;-88
2022/02/25 12:57:40;;;;;;;5.47;1.13;;;;;;;;;;6134362;23;20176;-88
2022/02/25 13:00:55;;;;;;;3.63;0.90;;;;;;;;;;6144843;23;20173;-86
2022/02/25 13:04:04;;;;;;;5.47;0.90;;;;;;;;;;6150966;23;20221;-83
2022/02/25 13:07:10;;;;;;;3.70;0.90;;;;;;;;;;6149489;23;20218;-87
2022/02/25 13:10:24;;;;;;;6.20;1.00;;;;;;;;;;6150411;23;20177;-85
2022/02/25 13:13:33;;;;;;;7.97;1.13;;;;;;;;;;6146460;23;20208;-88
2022/02/25 13:16:40;;;;;;;6.23;1.33;;;;;;;;;;6147361;23;20213;-88
2022/02/25 13:19:46;;;;;;;4.67;1.33;;;;;;;;;;6150173;23;20192;-86
2022/02/25 13:22:57;;;;;;;5.27;1.20;;;;;;;;;;6151035;23;20363;-85
2022/02/25 13:26:05;;;;;;;5.87;1.10;;;;;;;;;;6147314;23;20177;-86
2022/02/25 13:29:11;;;;;;;2.37;1.00;;;;;;;;;;6150215;23;20177;-85
2022/02/25 13:32:18;;;;;;;7.90;1.20;;;;;;;;;;6151433;23;20173;-84
2022/02/25 13:35:24;;;;;;;4.70;1.50;;;;;;;;;;6140840;23;20205;-86
2022/02/25 13:38:31;;;;;;;3.83;1.17;;;;;;;;;;6139696;23;20172;-87
2022/02/25 13:41:38;;;;;;;5.17;1.77;;;;;;;;;;6133248;23;20181;-87
2022/02/25 13:44:46;;;;;;;4.70;1.77;;;;;;;;;;6138603;23;20221;-86
2022/02/25 13:54:42;;;;;;;6.73;1.50;;;;;;;;;;6171591;23;20227;-85
2022/02/25 13:57:56;;;;;;;3.27;0.90;;;;;;;;;;6144917;23;20173;-86
2022/02/25 14:01:02;;;;;;;3.13;1.10;;;;;;;;;;6161412;23;20173;-85
2022/02/25 14:04:14;;;;;;;2.97;1.17;;;;;;;;;;6144950;23;20413;-86
2022/02/25 14:07:21;;;;;;;4.67;1.27;;;;;;;;;;6144173;23;20581;-87
2022/02/25 14:10:28;;;;;;;9.67;1.27;;;;;;;;;;6145040;23;20418;-87
2022/02/25 14:13:37;;;;;;;2.13;0.80;;;;;;;;;;6161582;23;20273;-85
2022/02/25 14:16:45;;;;;;;3.97;1.00;;;;;;;;;;6142100;23;20556;-86
2022/02/25 14:19:58;;;;;;;6.07;1.23;;;;;;;;;;6143625;23;20173;-87
2022/02/25 14:23:05;;;;;;;16.30;5.30;;;;;;;;;;6144645;23;20415;-87
2022/02/25 14:26:13;;;;;;;6.00;1.40;;;;;;;;;;6146239;23;20396;-86
2022/02/25 14:29:22;;;;;;;10.23;1.57;;;;;;;;;;6144604;23;20189;-86
2022/02/25 14:32:27;;;;;;;3.00;1.17;;;;;;;;;;6143618;23;20273;-87
2022/02/25 14:35:35;;;;;;;6.43;1.27;;;;;;;;;;6145172;23;20270;-87
2022/02/25 14:38:42;;;;;;;7.00;1.42;;;;;;;;;;6144412;23;20610;-86
2022/02/25 14:41:47;;;;;;;5.67;1.03;;;;;;;;;;6144371;23;20176;-85
2022/02/25 14:44:57;;;;;;;4.27;1.10;;;;;;;;;;6147695;23;20179;-87
2022/02/25 14:48:03;;;;;;;2.47;0.80;;;;;;;;;;6152900;23;20181;-86
2022/02/25 14:51:16;;;;;;;4.90;1.43;;;;;;;;;;6154222;23;20256;-85
2022/02/25 14:54:21;;;;;;;2.93;1.00;;;;;;;;;;6117986;23;20481;-86
2022/02/25 14:57:27;;;;;;;9.73;1.50;;;;;;;;;;6120437;23;20201;-87
2022/02/25 15:00:35;;;;;;;12.47;3.00;;;;;;;;;;6137362;23;20325;-87
2022/02/25 15:03:40;;;;;;;5.53;1.33;;;;;;;;;;6119493;23;20177;-86
2022/02/25 15:06:45;;;;;;;4.77;1.57;;;;;;;;;;6137298;23;20176;-86
2022/02/25 15:09:50;;;;;;;11.73;1.37;;;;;;;;;;6138478;23;20216;-86
2022/02/25 15:12:57;;;;;;;4.00;0.97;;;;;;;;;;6120991;23;20173;-87
2022/02/25 15:16:04;;;;;;;5.47;1.20;;;;;;;;;;6119431;23;20196;-87
2022/02/25 15:19:10;;;;;;;3.90;1.40;;;;;;;;;;6123255;23;20291;-87
2022/02/25 15:22:16;;;;;;;4.37;1.00;;;;;;;;;;6119623;23;20177;-85
2022/02/25 15:25:23;;;;;;;9.47;1.63;;;;;;;;;;6116836;23;20398;-87
2022/02/25 15:28:30;;;;;;;9.20;1.50;;;;;;;;;;6117604;23;20217;-86
2022/02/25 15:31:39;;;;;;;9.40;1.70;;;;;;;;;;6117853;23;20176;-86
2022/02/25 15:34:48;;;;;;;6.90;1.67;;;;;;;;;;6119621;23;20558;-85
2022/02/25 15:37:55;;;;;;;14.93;3.17;;;;;;;;;;6135175;23;20209;-84
2022/02/25 15:41:00;;;;;;;13.15;2.80;;;;;;;;;;6114527;23;20221;-86
2022/02/25 15:44:06;;;;;;;5.53;1.23;;;;;;;;;;6114576;23;20241;-87
2022/02/25 15:47:13;;;;;;;7.32;1.60;;;;;;;;;;6113914;23;20181;-87
2022/02/25 15:50:20;;;;;;;5.10;1.00;;;;;;;;;;6130814;23;20459;-87
2022/02/25 15:53:26;;;;;;;6.20;1.00;;;;;;;;;;6152598;23;20188;-86
2022/02/25 15:56:32;;;;;;;5.70;1.30;;;;;;;;;;6145456;23;20319;-87
2022/02/25 15:59:38;;;;;;;4.23;0.87;;;;;;;;;;6145589;23;20442;-86
2022/02/25 16:02:45;;;;;;;4.40;1.07;;;;;;;;;;6146406;23;20276;-87
2022/02/25 16:05:52;;;;;;;4.17;1.03;;;;;;;;;;6145070;23;20173;-88
2022/02/25 16:08:59;;;;;;;4.77;1.00;;;;;;;;;;6146137;23;20177;-87
2022/02/25 16:12:05;;;;;;;8.27;0.90;;;;;;;;;;6162841;23;20192;-87
2022/02/25 16:15:11;;;;;;;4.47;1.10;;;;;;;;;;6145034;23;20172;-87
2022/02/25 16:18:18;;;;;;;3.13;1.20;;;;;;;;;;6163031;23;20172;-85
2022/02/25 16:21:24;;;;;;;3.87;0.97;;;;;;;;;;6145678;23;20180;-86
2022/02/25 16:24:32;;;;;;;3.67;1.10;;;;;;;;;;6148919;23;20176;-84
2022/02/25 16:27:37;;;;;;;3.77;1.20;;;;;;;;;;6156565;23;20240;-84
2022/02/25 16:30:43;;;;;;;3.10;0.97;;;;;;;;;;6157519;23;20168;-84
2022/02/25 16:33:50;;;;;;;6.17;1.00;;;;;;;;;;6158241;23;20205;-85
2022/02/25 16:36:56;;;;;;;9.57;1.33;;;;;;;;;;6169788;23;20451;-86
2022/02/25 16:40:02;;;;;;;4.63;1.10;;;;;;;;;;6151378;23;20177;-87
2022/02/25 16:43:08;;;;;;;9.40;1.00;;;;;;;;;;6150152;23;20220;-86
2022/02/25 16:46:14;;;;;;;2.50;1.10;;;;;;;;;;6153135;23;20297;-86
2022/02/25 16:49:23;;;;;;;6.10;1.10;;;;;;;;;;6153838;23;20172;-87
2022/02/25 16:52:28;;;;;;;8.23;1.27;;;;;;;;;;6151532;23;20180;-87
2022/02/25 16:55:33;;;;;;;10.03;1.40;;;;;;;;;;6150654;23;20176;-84
2022/02/25 16:58:40;;;;;;;4.27;1.27;;;;;;;;;;6151386;23;20192;-86
2022/02/25 17:01:46;;;;;;;8.90;1.30;;;;;;;;;;6155574;23;20212;-87
2022/02/25 17:04:53;;;;;;;9.63;1.70;;;;;;;;;;6156521;23;20200;-86
2022/02/25 17:07:58;;;;;;;5.97;1.40;;;;;;;;;;6156608;23;20217;-86
2022/02/25 17:11:03;;;;;;;5.90;1.33;;;;;;;;;;6153182;23;20176;-87
2022/02/25 17:14:08;;;;;;;15.87;3.63;;;;;;;;;;6145361;23;20180;-86
2022/02/25 17:17:19;;;;;;;20.43;5.80;;;;;;;;;;6145081;23;20320;-87
2022/02/25 17:20:26;;;;;;;11.00;2.70;;;;;;;;;;6144743;23;20187;-85
2022/02/25 17:23:31;;;;;;;5.27;1.80;;;;;;;;;;6144811;23;20172;-86
2022/02/25 17:26:37;;;;;;;9.50;2.57;;;;;;;;;;6146194;23;20519;-87
2022/02/25 17:29:42;;;;;;;4.10;1.70;;;;;;;;;;6150759;23;20184;-87
2022/02/25 17:32:48;;;;;;;5.77;1.87;;;;;;;;;;6150597;23;20499;-85
2022/02/25 17:35:57;;;;;;;4.67;1.77;;;;;;;;;;6162223;23;20197;-85
2022/02/25 17:39:03;;;;;;;6.17;1.67;;;;;;;;;;6161359;23;20173;-86
2022/02/25 17:42:10;;;;;;;7.27;2.30;;;;;;;;;;6148755;23;20184;-85
2022/02/25 17:45:16;;;;;;;9.33;2.20;;;;;;;;;;6145213;23;20200;-86
2022/02/25 17:48:24;;;;;;;7.60;2.20;;;;;;;;;;6144415;23;20181;-85
2022/02/25 17:51:31;;;;;;;6.90;2.40;;;;;;;;;;6143682;23;20261;-85
2022/02/25 17:54:37;;;;;;;6.03;2.17;;;;;;;;;;6130896;23;20258;-85
2022/02/25 17:57:42;;;;;;;9.13;2.20;;;;;;;;;;6130898;23;20396;-85
2022/02/25 18:00:52;;;;;;;5.27;2.33;;;;;;;;;;6131049;23;20182;-84
2022/02/25 18:03:58;;;;;;;7.47;2.40;;;;;;;;;;6132610;23;20193;-87
2022/02/25 18:07:07;;;;;;;6.67;1.87;;;;;;;;;;6132488;23;20650;-86
2022/02/25 18:10:15;;;;;;;10.90;3.47;;;;;;;;;;6131854;23;20415;-86
2022/02/25 18:13:20;;;;;;;15.07;3.83;;;;;;;;;;6132205;23;20204;-86
2022/02/25 18:16:26;;;;;;;8.77;3.03;;;;;;;;;;6130242;23;20204;-86
2022/02/25 18:19:32;;;;;;;10.40;3.20;;;;;;;;;;6132562;23;20176;-85
2022/02/25 18:22:39;;;;;;;11.57;3.20;;;;;;;;;;6148823;23;20177;-84
2022/02/25 18:25:45;;;;;;;10.77;3.17;;;;;;;;;;6131157;23;20292;-84
2022/02/25 18:28:50;;;;;;;6.53;1.90;;;;;;;;;;6115157;23;20183;-85
2022/02/25 18:31:56;;;;;;;15.20;2.70;;;;;;;;;;6132425;23;20484;-84
2022/02/25 18:35:01;;;;;;;8.33;2.60;;;;;;;;;;6131356;23;20180;-86
2022/02/25 18:38:08;;;;;;;13.90;3.50;;;;;;;;;;6130966;23;20209;-85
2022/02/25 18:41:14;;;;;;;8.40;3.10;;;;;;;;;;6131465;23;20277;-85
2022/02/25 18:44:21;;;;;;;7.87;2.10;;;;;;;;;;6131099;23;20558;-85
2022/02/25 18:47:29;;;;;;;10.77;3.10;;;;;;;;;;6131470;23;20229;-85
2022/02/25 18:50:34;;;;;;;13.03;3.77;;;;;;;;;;6132040;23;20502;-85
2022/02/25 18:53:41;;;;;;;6.20;2.87;;;;;;;;;;6131041;23;20196;-86
2022/02/25 18:56:47;;;;;;;13.17;3.20;;;;;;;;;;6130261;23;20244;-86
2022/02/25 18:59:52;;;;;;;10.07;2.93;;;;;;;;;;6131476;23;20169;-86